createdAt,value
2023-03-05T00:12:48.826Z,80
2023-03-05T00:32:06.890Z,78.4
2023-03-05T00:51:22.379Z,76.3
2023-03-05T01:10:40.915Z,76.9
2023-03-05T01:29:57.285Z,77.4
2023-03-05T01:49:11.756Z,78.9
2023-03-05T02:08:29.616Z,80.1
2023-03-05T02:27:46.966Z,81.7
2023-03-05T02:47:05.996Z,85.2
2023-03-05T03:06:24.849Z,87.4
2023-03-05T03:25:40.688Z,88.3
2023-03-05T03:44:55.327Z,89.6
2023-03-05T04:04:14.413Z,87.8
2023-03-05T04:23:28.327Z,89.9
2023-03-05T04:42:46.825Z,89.8
2023-03-05T05:02:06.332Z,90
2023-03-05T05:21:23.736Z,91.1
2023-03-05T05:40:39.610Z,93.9
2023-03-05T05:59:56.625Z,95.6
2023-03-05T06:19:14.257Z,99.2
2023-03-05T06:38:32.555Z,98.1
2023-03-05T06:57:49.978Z,100
2023-03-05T07:17:03.853Z,100
2023-03-05T07:36:23.926Z,97.7
2023-03-05T07:55:43.569Z,94.3
2023-03-05T08:15:02.174Z,92.9
2023-03-05T08:34:20.820Z,91.3
2023-03-05T08:53:41.062Z,86.7
2023-03-05T09:12:58.616Z,85.4
2023-03-05T09:32:18.414Z,82.6
2023-03-05T09:51:34.565Z,85.4
2023-03-05T10:10:52.755Z,89.9
2023-03-05T10:30:10.676Z,94.8
2023-03-05T10:49:29.458Z,95.5
2023-03-05T11:08:58.660Z,90.9
2023-03-05T11:28:27.448Z,88.7
2023-03-05T11:47:38.060Z,85
2023-03-05T12:06:48.115Z,92
2023-03-05T12:26:05.545Z,91.5
2023-03-05T12:45:27.313Z,87.4
2023-03-05T13:04:42.336Z,84.9
2023-03-05T13:23:59.771Z,89.8
2023-03-05T13:43:17.156Z,88.8
2023-03-05T14:02:35.757Z,87.3
2023-03-05T14:21:53.577Z,85.9
2023-03-05T14:41:08.543Z,92.9
2023-03-05T15:00:27.234Z,94.6
2023-03-05T15:19:44.872Z,93.1
2023-03-05T15:39:04.820Z,93.9
2023-03-05T15:58:23.679Z,93.5
2023-03-05T16:17:44.162Z,92.8
2023-03-05T16:36:59.289Z,93.5
2023-03-05T16:56:16.238Z,91.5
2023-03-05T17:15:33.422Z,94.1
2023-03-05T17:34:50.433Z,95.5
2023-03-05T17:54:09.094Z,95.3
2023-03-05T18:13:23.863Z,95.1
2023-03-05T18:32:42.580Z,97.6
2023-03-05T18:52:01.450Z,98.7
2023-03-05T19:11:18.671Z,99.8
2023-03-05T19:30:37.867Z,99.7
2023-03-05T19:49:55.434Z,100
2023-03-05T20:09:13.528Z,100
2023-03-05T20:28:30.234Z,100
2023-03-05T20:47:48.331Z,100
2023-03-05T21:07:06.255Z,100
2023-03-05T21:26:23.188Z,100
2023-03-05T21:45:41.584Z,100
2023-03-05T22:04:59.270Z,100
2023-03-05T22:24:20.745Z,100
2023-03-05T22:43:38.506Z,100
2023-03-05T23:02:55.593Z,100
2023-03-05T23:22:13.203Z,100
2023-03-05T23:41:33.737Z,100
